Time;durP1;ratioP1;P1;durP2;ratioP2;P2;SDS_P1;SDS_P2;PMS_P1;PMS_P2;Temp;Humidity;BMP_temperature;BMP_pressure;BME280_temperature;BME280_humidity;BME280_pressure;Samples;Min_cycle;Max_cycle;Signal;HPM_P1;HPM_P2
2022/09/21 00:00:41;;;;;;;3.60;3.03;;;7.90;99.90;;;;;;5033939;28;20258;-37
2022/09/21 00:03:07;;;;;;;4.17;3.20;;;7.90;99.90;;;;;;5033807;28;20184;-38
2022/09/21 00:05:33;;;;;;;3.57;3.10;;;7.80;99.90;;;;;;5032468;28;20181;-39
2022/09/21 00:08:00;;;;;;;3.73;2.80;;;7.80;99.90;;;;;;5033479;28;20210;-38
2022/09/21 00:10:26;;;;;;;3.30;3.00;;;7.70;99.90;;;;;;5033915;28;20205;-39
2022/09/21 00:12:52;;;;;;;4.70;3.13;;;7.70;99.90;;;;;;5032375;28;20209;-39
2022/09/21 00:15:18;;;;;;;4.83;2.90;;;7.70;99.90;;;;;;5033642;28;20189;-40
2022/09/21 00:17:46;;;;;;;6.17;3.40;;;7.70;99.90;;;;;;5034067;28;20288;-39
2022/09/21 00:20:13;;;;;;;4.53;3.47;;;7.70;99.90;;;;;;5033498;28;20176;-39
2022/09/21 00:22:38;;;;;;;4.50;3.23;;;7.60;99.90;;;;;;5033739;28;20176;-39
2022/09/21 00:25:04;;;;;;;5.80;3.33;;;7.70;99.90;;;;;;5032872;28;20189;-37
2022/09/21 00:27:30;;;;;;;5.87;3.33;;;7.60;99.90;;;;;;5033778;28;20560;-39
2022/09/21 00:30:01;;;;;;;4.20;3.17;;;7.60;99.90;;;;;;5032384;28;20209;-37
2022/09/21 00:32:30;;;;;;;6.20;3.17;;;7.50;99.90;;;;;;5032363;28;20204;-39
2022/09/21 00:34:56;;;;;;;4.10;3.10;;;7.50;99.90;;;;;;5033647;28;20679;-38
2022/09/21 00:37:22;;;;;;;3.80;2.80;;;7.50;99.90;;;;;;5033902;28;20201;-38
2022/09/21 00:39:47;;;;;;;3.57;2.70;;;7.40;99.90;;;;;;5033692;28;20173;-40
2022/09/21 00:42:19;;;;;;;4.07;3.07;;;7.40;99.90;;;;;;5033444;28;20181;-38
2022/09/21 00:44:45;;;;;;;5.43;3.50;;;7.30;99.90;;;;;;5033495;28;20184;-45
2022/09/21 00:47:14;;;;;;;3.83;3.10;;;7.30;99.90;;;;;;5033511;28;20607;-42
2022/09/21 00:49:48;;;;;;;6.77;3.27;;;7.30;99.90;;;;;;5031917;28;20232;-43
2022/09/21 00:52:16;;;;;;;3.17;2.70;;;7.20;99.90;;;;;;5036623;28;20248;-44
2022/09/21 00:54:48;;;;;;;2.87;2.53;;;7.20;99.90;;;;;;5039075;28;20165;-42
2022/09/21 00:57:15;;;;;;;3.90;2.77;;;7.20;99.90;;;;;;5032904;28;20213;-44
2022/09/21 00:59:43;;;;;;;4.27;3.00;;;7.20;99.90;;;;;;5031905;28;20185;-43
2022/09/21 01:02:10;;;;;;;4.20;3.30;;;7.20;99.90;;;;;;5033289;28;20180;-42
2022/09/21 01:04:37;;;;;;;4.40;3.50;;;7.10;99.90;;;;;;5033120;28;20185;-43
2022/09/21 01:07:11;;;;;;;3.30;3.00;;;7.10;99.90;;;;;;5033911;28;20250;-45
2022/09/21 01:09:37;;;;;;;5.17;3.10;;;7.00;99.90;;;;;;5032787;28;20192;-42
2022/09/21 01:12:08;;;;;;;3.20;2.87;;;7.00;99.90;;;;;;5033385;28;20516;-41
2022/09/21 01:14:53;;;;;;;3.63;2.63;;;7.00;99.90;;;;;;5033159;28;20169;-45
2022/09/21 01:17:27;;;;;;;4.07;2.87;;;7.00;99.90;;;;;;5032940;28;20205;-43
2022/09/21 01:20:01;;;;;;;4.37;3.00;;;6.90;99.90;;;;;;5032787;28;20177;-45
2022/09/21 01:22:55;;;;;;;5.87;3.23;;;6.90;99.90;;;;;;5033088;28;20256;-43
2022/09/21 01:25:48;;;;;;;6.03;3.50;;;6.80;99.90;;;;;;5032981;28;20165;-43
2022/09/21 01:28:21;;;;;;;4.80;3.30;;;6.80;99.90;;;;;;5032653;28;20634;-43
2022/09/21 01:30:50;;;;;;;5.70;3.70;;;6.80;99.90;;;;;;5032959;28;20185;-44
2022/09/21 01:33:30;;;;;;;3.43;2.80;;;6.80;99.90;;;;;;5032838;28;20213;-43
2022/09/21 01:36:00;;;;;;;5.00;3.17;;;6.80;99.90;;;;;;5032797;28;20169;-44
2022/09/21 01:38:35;;;;;;;4.47;2.90;;;6.70;99.90;;;;;;5036392;28;20287;-44
2022/09/21 01:41:03;;;;;;;6.23;3.43;;;6.70;99.90;;;;;;5036873;28;20594;-44
2022/09/21 01:43:54;;;;;;;4.90;3.70;;;6.70;99.90;;;;;;5036777;28;20177;-44
2022/09/21 01:46:24;;;;;;;4.13;3.40;;;6.70;99.90;;;;;;5033590;28;20195;-43
2022/09/21 01:48:54;;;;;;;4.57;3.30;;;6.60;99.90;;;;;;5036688;28;20208;-44
2022/09/21 01:51:23;;;;;;;5.27;3.20;;;6.60;99.90;;;;;;5037059;28;20168;-44
2022/09/21 01:53:56;;;;;;;6.83;3.03;;;6.50;99.90;;;;;;5036514;28;20512;-42
2022/09/21 01:56:32;;;;;;;3.87;3.30;;;6.50;99.90;;;;;;5036254;28;20181;-42
2022/09/21 01:59:13;;;;;;;3.93;3.47;;;6.50;99.90;;;;;;5036395;28;20163;-43
2022/09/21 02:01:46;;;;;;;5.53;3.50;;;6.50;99.90;;;;;;5036236;28;20171;-43
2022/09/21 02:04:12;;;;;;;6.40;3.57;;;6.50;99.90;;;;;;5036505;28;20177;-44
2022/09/21 02:06:42;;;;;;;6.00;3.47;;;6.40;99.90;;;;;;5035882;28;20259;-43
2022/09/21 02:09:09;;;;;;;4.80;3.60;;;6.40;99.90;;;;;;5036167;28;20201;-45
2022/09/21 02:11:41;;;;;;;4.87;3.37;;;6.40;99.90;;;;;;5036164;28;20180;-43
2022/09/21 02:14:10;;;;;;;5.70;3.30;;;6.40;99.90;;;;;;5036345;28;20169;-43
2022/09/21 02:16:43;;;;;;;5.60;3.53;;;6.30;99.90;;;;;;5034569;28;20263;-44
2022/09/21 02:19:21;;;;;;;3.90;3.33;;;6.30;99.90;;;;;;5036274;28;20212;-44
2022/09/21 02:22:06;;;;;;;3.83;3.30;;;6.30;99.90;;;;;;5036238;28;20198;-44
2022/09/21 02:24:42;;;;;;;4.93;3.13;;;6.30;99.90;;;;;;5031850;28;20196;-43
2022/09/21 02:27:48;;;;;;;4.03;3.40;;;6.20;99.90;;;;;;5035941;28;20197;-44
2022/09/21 02:30:23;;;;;;;4.23;3.40;;;6.20;99.90;;;;;;5031216;28;20223;-44
2022/09/21 02:32:50;;;;;;;4.23;3.20;;;6.20;99.90;;;;;;5036036;28;20634;-44
2022/09/21 02:35:30;;;;;;;4.03;3.20;;;6.10;99.90;;;;;;5036623;28;20226;-44
2022/09/21 02:38:06;;;;;;;5.10;3.57;;;6.10;99.90;;;;;;5035973;28;20200;-43
2022/09/21 02:40:50;;;;;;;9.23;4.20;;;6.10;99.90;;;;;;5036864;28;20226;-42
2022/09/21 02:43:30;;;;;;;7.00;4.20;;;6.10;99.90;;;;;;5035504;28;20177;-44
2022/09/21 02:46:03;;;;;;;4.47;3.87;;;6.00;99.90;;;;;;5035832;28;20646;-42
2022/09/21 02:48:34;;;;;;;5.30;3.90;;;6.00;99.90;;;;;;5033002;28;20222;-44
2022/09/21 02:51:08;;;;;;;6.10;3.50;;;6.10;99.90;;;;;;5035743;28;20219;-43
2022/09/21 02:53:37;;;;;;;6.23;3.70;;;6.10;99.90;;;;;;5035721;28;20606;-43
2022/09/21 02:56:06;;;;;;;5.47;3.47;;;6.00;99.90;;;;;;5035127;28;20176;-44
2022/09/21 02:58:36;;;;;;;11.87;3.60;;;6.00;99.90;;;;;;5035395;28;20217;-44
2022/09/21 03:01:05;;;;;;;5.60;3.40;;;6.00;99.90;;;;;;5035809;28;20184;-43
2022/09/21 03:03:31;;;;;;;3.40;3.10;;;6.00;99.90;;;;;;5033911;28;20720;-42
2022/09/21 03:05:57;;;;;;;3.57;3.00;;;6.00;99.90;;;;;;5033867;28;20185;-43
2022/09/21 03:08:23;;;;;;;3.93;3.13;;;5.90;99.90;;;;;;5035170;28;20218;-43
2022/09/21 03:10:49;;;;;;;4.13;3.20;;;5.90;99.90;;;;;;5035098;28;20708;-45
2022/09/21 03:13:16;;;;;;;4.43;3.33;;;5.90;99.90;;;;;;5035518;28;20168;-44
2022/09/21 03:15:42;;;;;;;3.20;2.90;;;5.90;99.90;;;;;;5034993;28;20173;-43
2022/09/21 03:18:10;;;;;;;3.43;3.07;;;5.90;99.90;;;;;;5035041;28;20256;-44
2022/09/21 03:20:39;;;;;;;3.50;3.10;;;5.90;99.90;;;;;;5034954;28;20215;-44
2022/09/21 03:23:05;;;;;;;3.37;3.07;;;5.90;99.90;;;;;;5034787;28;20175;-43
2022/09/21 03:25:32;;;;;;;4.83;3.43;;;5.90;99.90;;;;;;5034678;28;20276;-43
2022/09/21 03:27:57;;;;;;;4.10;3.13;;;5.90;99.90;;;;;;5034752;28;20294;-46
2022/09/21 03:30:25;;;;;;;5.20;3.53;;;5.80;99.90;;;;;;5033254;28;20266;-44
2022/09/21 03:32:52;;;;;;;4.17;3.17;;;5.80;99.90;;;;;;5035076;28;20653;-44
2022/09/21 03:35:18;;;;;;;5.60;3.10;;;5.80;99.90;;;;;;5034729;28;20555;-43
2022/09/21 03:37:47;;;;;;;3.20;2.90;;;5.70;99.90;;;;;;5034859;28;20211;-43
2022/09/21 03:40:14;;;;;;;6.30;3.43;;;5.70;99.90;;;;;;5034712;28;20552;-44
2022/09/21 03:42:40;;;;;;;4.13;3.20;;;5.70;99.90;;;;;;5034537;28;20189;-44
2022/09/21 03:45:07;;;;;;;3.70;3.17;;;5.60;99.90;;;;;;5034936;28;20179;-45
2022/09/21 03:47:33;;;;;;;4.47;3.17;;;5.60;99.90;;;;;;5033101;28;20206;-44
2022/09/21 03:49:59;;;;;;;3.97;3.20;;;5.60;99.90;;;;;;5034662;28;20615;-44
2022/09/21 03:52:25;;;;;;;4.70;3.13;;;5.60;99.90;;;;;;5034378;28;20184;-45
2022/09/21 03:54:50;;;;;;;7.67;3.43;;;5.60;99.90;;;;;;5034762;28;20664;-44
2022/09/21 03:57:16;;;;;;;6.33;3.70;;;5.60;99.90;;;;;;5034096;28;20342;-43
2022/09/21 03:59:41;;;;;;;5.20;3.23;;;5.60;99.90;;;;;;5033951;28;20182;-43
2022/09/21 04:02:07;;;;;;;6.03;3.27;;;5.50;99.90;;;;;;5032973;28;20274;-42
2022/09/21 04:04:33;;;;;;;4.70;3.30;;;5.50;99.90;;;;;;5034255;28;20186;-44
2022/09/21 04:06:59;;;;;;;3.67;2.73;;;5.50;99.90;;;;;;5033968;28;20706;-44
2022/09/21 04:09:25;;;;;;;4.73;3.27;;;5.40;99.90;;;;;;5033886;28;20203;-44
2022/09/21 04:11:52;;;;;;;3.53;3.10;;;5.50;99.90;;;;;;5033886;28;20178;-42
2022/09/21 04:14:18;;;;;;;4.63;2.83;;;5.40;99.90;;;;;;5034021;28;20175;-44
2022/09/21 04:16:45;;;;;;;4.20;3.43;;;5.40;99.90;;;;;;5033781;28;20251;-43
2022/09/21 04:19:11;;;;;;;3.73;3.10;;;5.50;99.90;;;;;;5034132;28;20253;-43
2022/09/21 04:21:36;;;;;;;6.23;3.33;;;5.40;99.90;;;;;;5032595;28;20189;-42
2022/09/21 04:24:03;;;;;;;3.57;3.27;;;5.40;99.90;;;;;;5034249;28;20183;-42
2022/09/21 04:26:31;;;;;;;4.10;3.53;;;5.40;99.90;;;;;;5033935;28;20234;-43
2022/09/21 04:28:57;;;;;;;4.77;3.63;;;5.40;99.90;;;;;;5033665;28;20223;-44
2022/09/21 04:31:24;;;;;;;5.30;3.50;;;5.40;99.90;;;;;;5032315;28;20218;-43
2022/09/21 04:33:51;;;;;;;5.70;3.53;;;5.40;99.90;;;;;;5048813;23;20210;-39
2022/09/21 04:36:18;;;;;;;4.80;3.30;;;5.40;99.90;;;;;;5054734;28;20173;-40
2022/09/21 04:38:44;;;;;;;4.37;3.70;;;5.40;99.90;;;;;;5074591;28;20265;-43
2022/09/21 04:41:11;;;;;;;9.33;3.63;;;5.40;99.90;;;;;;5072405;28;20287;-43
2022/09/21 04:43:37;;;;;;;4.77;3.60;;;5.30;99.90;;;;;;5074103;28;20183;-44
2022/09/21 04:46:05;;;;;;;6.30;3.50;;;5.30;99.90;;;;;;5073682;28;20266;-43
2022/09/21 04:48:31;;;;;;;3.47;3.03;;;5.40;99.90;;;;;;5073437;28;20224;-46
2022/09/21 04:50:57;;;;;;;7.17;3.87;;;5.30;99.90;;;;;;5072236;28;20182;-44
2022/09/21 04:53:22;;;;;;;4.30;3.23;;;5.30;99.90;;;;;;5073624;28;20588;-43
2022/09/21 04:55:48;;;;;;;5.37;3.57;;;5.30;99.90;;;;;;5073275;28;20212;-43
2022/09/21 04:58:13;;;;;;;3.73;3.43;;;5.30;99.90;;;;;;5073297;28;20668;-42
2022/09/21 05:00:39;;;;;;;4.60;3.50;;;5.30;99.90;;;;;;5073031;28;20183;-44
2022/09/21 05:03:04;;;;;;;4.80;3.70;;;5.30;99.90;;;;;;5073022;28;20235;-44
2022/09/21 05:05:30;;;;;;;5.03;3.70;;;5.30;99.90;;;;;;5073155;28;20186;-43
2022/09/21 05:07:56;;;;;;;5.13;3.57;;;5.30;99.90;;;;;;5073202;28;20246;-43
2022/09/21 05:10:22;;;;;;;4.57;4.03;;;5.30;99.90;;;;;;5072844;28;20177;-42
2022/09/21 05:12:47;;;;;;;8.37;3.73;;;5.40;99.90;;;;;;5072455;28;20176;-42
2022/09/21 05:15:13;;;;;;;9.43;4.07;;;5.40;99.90;;;;;;5073170;28;20173;-43
2022/09/21 05:17:40;;;;;;;4.27;3.67;;;5.40;99.90;;;;;;5073055;28;20205;-43
2022/09/21 05:20:06;;;;;;;6.97;3.97;;;5.50;99.90;;;;;;5073258;28;20174;-43
2022/09/21 05:22:32;;;;;;;6.47;3.67;;;5.50;99.90;;;;;;5072897;28;20174;-41
2022/09/21 05:24:57;;;;;;;6.83;3.77;;;5.50;99.90;;;;;;5072970;28;20177;-43
2022/09/21 05:27:23;;;;;;;6.60;3.50;;;5.50;99.90;;;;;;5072687;28;20237;-42
2022/09/21 05:29:49;;;;;;;4.03;3.63;;;5.60;99.90;;;;;;5073008;28;20268;-42
2022/09/21 05:32:41;;;;;;;3.87;3.30;;;5.60;99.90;;;;;;5073572;28;20173;-43
2022/09/21 05:35:35;;;;;;;4.90;3.77;;;5.60;99.90;;;;;;5073038;28;20188;-44
2022/09/21 05:38:14;;;;;;;5.83;4.10;;;5.60;99.90;;;;;;5073470;28;20288;-43
2022/09/21 05:40:39;;;;;;;4.50;3.20;;;5.60;99.90;;;;;;5073877;28;20571;-43
2022/09/21 05:43:05;;;;;;;5.20;3.47;;;5.70;99.90;;;;;;5072034;28;20180;-43
2022/09/21 05:45:31;;;;;;;5.10;4.00;;;5.70;99.90;;;;;;5072638;28;20209;-44
2022/09/21 05:48:22;;;;;;;5.20;4.03;;;5.70;99.90;;;;;;5072509;28;20673;-43
2022/09/21 05:51:32;;;;;;;9.40;3.77;;;5.80;99.90;;;;;;5072740;28;20158;-43
2022/09/21 05:54:05;;;;;;;9.67;3.80;;;5.80;99.90;;;;;;5072223;28;20535;-42
2022/09/21 05:56:39;;;;;;;5.10;4.23;;;5.90;99.90;;;;;;5072437;28;20198;-44
2022/09/21 05:59:34;;;;;;;6.50;4.00;;;5.90;99.90;;;;;;5072837;28;20216;-42
2022/09/21 06:02:38;;;;;;;5.37;3.90;;;6.00;99.90;;;;;;5071519;28;20170;-43
2022/09/21 06:05:10;;;;;;;13.83;4.53;;;6.00;99.90;;;;;;4991264;28;20183;-43
2022/09/21 06:07:35;;;;;;;5.23;4.23;;;6.10;99.90;;;;;;4991816;28;20215;-42
2022/09/21 06:10:01;;;;;;;6.60;4.50;;;6.20;99.90;;;;;;5032273;28;20346;-43
2022/09/21 06:12:26;;;;;;;5.27;4.57;;;6.20;99.90;;;;;;5072702;28;20170;-43
2022/09/21 06:14:52;;;;;;;5.70;4.73;;;6.30;99.90;;;;;;5071239;28;20189;-44
2022/09/21 06:17:18;;;;;;;7.70;5.03;;;6.40;99.90;;;;;;5072596;28;20194;-42
2022/09/21 06:19:44;;;;;;;11.37;6.00;;;6.50;99.90;;;;;;5071235;28;20677;-45
2022/09/21 06:22:09;;;;;;;11.57;6.67;;;6.60;99.90;;;;;;5072592;28;20677;-42
2022/09/21 06:24:35;;;;;;;10.13;7.20;;;6.70;99.90;;;;;;5074454;28;20665;-45
2022/09/21 06:27:00;;;;;;;13.03;8.10;;;6.90;99.90;;;;;;5075927;28;20190;-43
2022/09/21 06:29:26;;;;;;;11.37;8.00;;;7.00;99.90;;;;;;5076181;28;20644;-44
2022/09/21 06:31:51;;;;;;;12.63;8.63;;;7.10;99.90;;;;;;5075936;28;20253;-44
2022/09/21 06:34:17;;;;;;;13.73;9.97;;;7.20;99.90;;;;;;5075964;28;20185;-43
2022/09/21 06:36:44;;;;;;;18.53;11.03;;;7.30;99.90;;;;;;5074608;28;20698;-43
2022/09/21 06:39:10;;;;;;;13.53;10.63;;;7.50;99.90;;;;;;5076060;28;20213;-43
2022/09/21 06:41:35;;;;;;;17.00;10.03;;;7.60;99.90;;;;;;5076449;28;20667;-44
2022/09/21 06:44:01;;;;;;;17.43;11.10;;;7.80;99.90;;;;;;5075665;28;20182;-43
2022/09/21 06:46:27;;;;;;;17.77;12.77;;;7.90;99.90;;;;;;5076011;28;20248;-44
2022/09/21 06:48:53;;;;;;;20.50;12.10;;;8.10;99.90;;;;;;5075276;28;20569;-44
2022/09/21 06:51:20;;;;;;;18.10;10.77;;;8.20;99.90;;;;;;5075482;28;20670;-43
2022/09/21 06:53:46;;;;;;;20.27;11.93;;;8.30;99.90;;;;;;5075734;28;20594;-43
2022/09/21 06:56:12;;;;;;;19.77;13.27;;;8.50;99.90;;;;;;5075263;28;20174;-45
2022/09/21 06:58:38;;;;;;;26.33;14.43;;;8.70;99.90;;;;;;5075570;28;20289;-42
2022/09/21 07:01:08;;;;;;;29.40;13.90;;;8.80;99.90;;;;;;5075257;28;20186;-43
2022/09/21 07:03:35;;;;;;;24.00;13.77;;;8.90;99.90;;;;;;5075700;28;20166;-43
2022/09/21 07:06:01;;;;;;;23.80;15.40;;;9.00;99.90;;;;;;5075299;28;20183;-42
2022/09/21 07:08:26;;;;;;;27.47;15.03;;;9.20;99.90;;;;;;5074873;28;20645;-43
2022/09/21 07:10:52;;;;;;;29.77;16.80;;;9.30;99.90;;;;;;5075263;28;20175;-43
2022/09/21 07:13:18;;;;;;;26.93;17.03;;;9.40;99.90;;;;;;5075088;28;20256;-41
2022/09/21 07:15:43;;;;;;;25.03;17.33;;;9.50;99.90;;;;;;5074171;28;20215;-42
2022/09/21 07:18:13;;;;;;;31.13;18.07;;;9.60;99.90;;;;;;5075190;28;20563;-45
2022/09/21 07:20:40;;;;;;;27.70;17.50;;;9.70;99.90;;;;;;5075375;28;20171;-41
2022/09/21 07:23:14;;;;;;;26.10;17.77;;;9.80;99.90;;;;;;5075603;28;20637;-43
2022/09/21 07:25:44;;;;;;;26.17;17.87;;;9.90;99.90;;;;;;5075506;28;20579;-42
2022/09/21 07:28:11;;;;;;;34.27;18.37;;;10.00;99.90;;;;;;5075211;28;20223;-45
2022/09/21 07:30:37;;;;;;;31.30;19.43;;;10.10;99.90;;;;;;5074928;28;20241;-44
2022/09/21 07:33:04;;;;;;;31.77;20.33;;;10.20;99.90;;;;;;5074647;28;20194;-43
2022/09/21 07:35:30;;;;;;;26.40;18.23;;;10.20;99.90;;;;;;5074430;28;20195;-44
2022/09/21 07:38:04;;;;;;;30.37;18.50;;;10.30;99.90;;;;;;5074675;28;20215;-44
2022/09/21 07:40:30;;;;;;;28.43;18.20;;;10.40;99.90;;;;;;5075188;28;20179;-43
2022/09/21 07:43:01;;;;;;;28.43;19.83;;;10.50;99.90;;;;;;5074645;28;20641;-44
2022/09/21 07:45:26;;;;;;;25.73;19.47;;;10.60;99.90;;;;;;5075200;28;20186;-41
2022/09/21 07:47:55;;;;;;;35.03;21.57;;;10.70;99.90;;;;;;5073428;28;20574;-42
2022/09/21 07:50:21;;;;;;;32.43;22.57;;;10.80;99.90;;;;;;5074708;28;20180;-43
2022/09/21 07:52:47;;;;;;;30.97;21.57;;;10.90;99.90;;;;;;5074503;28;20179;-43
2022/09/21 07:55:13;;;;;;;25.57;17.93;;;11.00;99.90;;;;;;5075168;28;20583;-42
2022/09/21 08:00:24;;;;;;;31.33;18.23;;;11.20;99.90;;;;;;5074459;28;20175;-43
2022/09/21 08:02:50;;;;;;;33.10;19.93;;;11.50;99.90;;;;;;5074281;28;20230;-43
2022/09/21 08:05:16;;;;;;;30.73;19.30;;;11.60;99.90;;;;;;5074007;28;20184;-42
2022/09/21 08:07:41;;;;;;;37.70;21.17;;;11.70;99.90;;;;;;5074104;28;20567;-44
2022/09/21 08:10:07;;;;;;;29.63;19.63;;;11.80;99.90;;;;;;5074048;28;20260;-42
2022/09/21 08:12:33;;;;;;;30.37;20.50;;;11.90;99.90;;;;;;5073882;28;20176;-43
2022/09/21 08:14:59;;;;;;;24.20;17.17;;;11.90;99.90;;;;;;5073862;28;20184;-43
2022/09/21 08:17:24;;;;;;;26.40;16.60;;;11.90;99.90;;;;;;5074092;28;20581;-43
2022/09/21 08:19:50;;;;;;;26.23;17.13;;;12.00;99.90;;;;;;5073863;28;20552;-44
2022/09/21 08:22:16;;;;;;;27.20;16.53;;;12.10;99.90;;;;;;5074023;28;20189;-45
2022/09/21 08:24:43;;;;;;;24.33;15.93;;;12.10;99.90;;;;;;5073877;28;20265;-44
2022/09/21 08:27:09;;;;;;;21.00;13.33;;;12.20;99.90;;;;;;5072360;28;20205;-44
2022/09/21 08:29:35;;;;;;;17.43;12.40;;;12.40;99.90;;;;;;5073488;28;20628;-45
2022/09/21 08:32:01;;;;;;;14.20;11.63;;;12.50;99.90;;;;;;5074420;28;20171;-42
2022/09/21 08:34:26;;;;;;;20.60;10.00;;;12.50;99.90;;;;;;5073444;28;20682;-42
2022/09/21 08:36:52;;;;;;;16.67;9.97;;;12.60;99.90;;;;;;5073674;28;20206;-44
2022/09/21 08:39:18;;;;;;;16.60;10.00;;;12.70;99.90;;;;;;5073802;28;20233;-44
2022/09/21 08:41:56;;;;;;;13.43;9.83;;;12.80;99.90;;;;;;5073632;28;20642;-42
2022/09/21 08:44:23;;;;;;;13.57;9.53;;;12.80;99.90;;;;;;5073722;28;20191;-41
2022/09/21 08:47:01;;;;;;;16.33;9.20;;;12.80;99.90;;;;;;5072862;28;20198;-45
2022/09/21 08:49:28;;;;;;;18.27;9.50;;;12.90;99.90;;;;;;5073441;28;20293;-44
2022/09/21 08:51:59;;;;;;;18.37;7.97;;;13.00;99.90;;;;;;5073545;28;20184;-43
2022/09/21 08:55:00;;;;;;;17.57;9.00;;;13.10;99.90;;;;;;5073612;28;20613;-44
2022/09/21 08:57:29;;;;;;;16.27;9.17;;;13.20;99.90;;;;;;5073475;28;20197;-42
2022/09/21 08:59:55;;;;;;;18.07;8.73;;;13.30;99.90;;;;;;5073564;28;20184;-41
2022/09/21 09:02:55;;;;;;;10.73;8.33;;;13.40;99.90;;;;;;5073783;28;20278;-44
2022/09/21 09:05:32;;;;;;;13.23;8.73;;;13.60;99.90;;;;;;5073520;28;20194;-46
2022/09/21 09:08:26;;;;;;;14.67;8.87;;;13.70;99.90;;;;;;5077662;28;20282;-44
2022/09/21 09:11:04;;;;;;;14.97;8.47;;;13.80;99.90;;;;;;5078613;28;20174;-44
2022/09/21 09:14:06;;;;;;;25.60;8.67;;;13.90;99.90;;;;;;5079613;28;20159;-44
2022/09/21 09:17:07;;;;;;;14.57;9.90;;;14.10;99.90;;;;;;5080880;28;20280;-47
2022/09/21 09:19:53;;;;;;;15.10;9.33;;;14.20;99.90;;;;;;5080749;28;20571;-45
2022/09/21 09:22:43;;;;;;;14.70;8.50;;;14.30;99.90;;;;;;5069189;28;20191;-45
2022/09/21 09:25:21;;;;;;;14.27;8.00;;;14.40;99.90;;;;;;5079269;28;20185;-46
2022/09/21 09:27:51;;;;;;;13.07;7.47;;;14.40;99.90;;;;;;5078170;28;20203;-45
2022/09/21 09:30:20;;;;;;;12.03;7.00;;;14.50;99.90;;;;;;5077632;28;20199;-45
2022/09/21 09:32:59;;;;;;;10.43;6.83;;;14.60;99.90;;;;;;5078818;28;20179;-46
2022/09/21 09:35:33;;;;;;;14.30;6.57;;;14.70;99.90;;;;;;5079664;28;20550;-43
2022/09/21 09:38:13;;;;;;;14.33;6.60;;;14.80;99.90;;;;;;5079399;28;20187;-44
2022/09/21 09:40:57;;;;;;;11.13;5.77;;;14.90;99.90;;;;;;5080648;28;20164;-46
2022/09/21 09:43:32;;;;;;;7.03;4.77;;;15.00;99.90;;;;;;5080338;28;20164;-45
2022/09/21 09:46:24;;;;;;;8.67;5.73;;;15.10;99.90;;;;;;5079675;28;20253;-45
2022/09/21 09:49:08;;;;;;;13.67;6.37;;;15.20;99.90;;;;;;5079694;28;20645;-44
2022/09/21 09:51:36;;;;;;;13.30;5.80;;;15.40;99.90;;;;;;5079577;28;20171;-44
2022/09/21 09:54:02;;;;;;;10.70;4.70;;;15.40;99.90;;;;;;5079557;28;20178;-45
2022/09/21 09:56:31;;;;;;;9.70;4.77;;;15.50;99.90;;;;;;5079328;28;20168;-46
2022/09/21 09:59:02;;;;;;;8.80;4.73;;;15.50;99.90;;;;;;5081750;28;20186;-44
2022/09/21 10:01:46;;;;;;;12.57;6.23;;;15.50;99.90;;;;;;5083736;28;20630;-47
2022/09/21 10:04:14;;;;;;;8.40;5.17;;;15.60;99.90;;;;;;5082498;28;20190;-43
2022/09/21 10:06:41;;;;;;;9.07;4.57;;;15.70;99.90;;;;;;5081625;28;20257;-45
2022/09/21 10:09:24;;;;;;;13.33;5.23;;;15.80;99.90;;;;;;5081027;28;20245;-47
2022/09/21 10:11:53;;;;;;;6.43;3.93;;;16.00;99.90;;;;;;5080600;28;20167;-46
2022/09/21 10:14:25;;;;;;;7.70;4.17;;;16.00;99.90;;;;;;5079851;28;20241;-43
2022/09/21 10:16:52;;;;;;;11.40;4.73;;;16.10;99.90;;;;;;5079954;28;20658;-47
2022/09/21 10:19:24;;;;;;;8.80;4.13;;;16.10;99.90;;;;;;5079272;28;20207;-46
2022/09/21 10:21:58;;;;;;;5.50;2.97;;;16.20;99.90;;;;;;5078145;28;20167;-43
2022/09/21 10:24:37;;;;;;;5.27;2.80;;;16.30;99.90;;;;;;5079253;28;20164;-44
2022/09/21 10:27:10;;;;;;;6.77;2.07;;;16.40;99.90;;;;;;5079505;28;20619;-45
2022/09/21 10:29:44;;;;;;;7.50;2.73;;;16.50;99.90;;;;;;5079573;28;20206;-46
2022/09/21 10:32:22;;;;;;;8.53;3.60;;;16.60;99.90;;;;;;5080274;28;20264;-47
2022/09/21 10:35:06;;;;;;;8.67;4.27;;;16.60;99.90;;;;;;5080203;28;20191;-46
2022/09/21 10:37:36;;;;;;;9.03;3.90;;;16.70;99.90;;;;;;5080738;28;20196;-46
2022/09/21 10:40:03;;;;;;;6.87;3.67;;;16.80;99.90;;;;;;5079679;28;20645;-45
2022/09/21 10:42:34;;;;;;;6.43;3.37;;;16.90;99.90;;;;;;5079235;28;20179;-44
2022/09/21 10:45:19;;;;;;;7.97;4.00;;;17.00;99.90;;;;;;5079471;28;20207;-47
2022/09/21 10:47:51;;;;;;;9.13;4.30;;;17.10;99.90;;;;;;5077118;28;20195;-44
2022/09/21 10:50:34;;;;;;;5.83;3.10;;;17.20;99.90;;;;;;5078188;28;20244;-48
2022/09/21 10:53:12;;;;;;;7.40;2.60;;;17.30;99.90;;;;;;5078834;28;20205;-46
2022/09/21 10:55:51;;;;;;;7.47;2.57;;;17.40;99.90;;;;;;5077253;28;20163;-47
2022/09/21 10:58:17;;;;;;;7.00;3.07;;;17.40;99.90;;;;;;5077017;28;20264;-45
2022/09/21 11:00:50;;;;;;;7.33;2.43;;;17.40;99.90;;;;;;5078700;28;20251;-46
2022/09/21 11:03:35;;;;;;;6.13;2.90;;;17.50;99.90;;;;;;5078416;28;20156;-45
2022/09/21 11:06:17;;;;;;;7.27;3.30;;;17.30;99.90;;;;;;5078164;28;20167;-46
2022/09/21 11:09:01;;;;;;;6.63;2.77;;;17.30;99.90;;;;;;5079475;28;20203;-46
2022/09/21 11:11:46;;;;;;;5.17;2.30;;;17.50;99.90;;;;;;5078549;28;20163;-47
2022/09/21 11:14:21;;;;;;;5.27;2.30;;;17.60;99.90;;;;;;5079438;28;20636;-47
2022/09/21 11:17:04;;;;;;;4.10;2.30;;;17.70;99.90;;;;;;5079407;28;20195;-46
2022/09/21 11:19:41;;;;;;;5.63;2.77;;;17.70;99.90;;;;;;5078916;28;20168;-45
2022/09/21 11:22:31;;;;;;;9.23;4.10;;;17.80;99.90;;;;;;5079454;28;20617;-46
2022/09/21 11:25:24;;;;;;;12.87;4.00;;;18.00;99.90;;;;;;5079409;28;20237;-46
2022/09/21 11:27:58;;;;;;;6.23;3.03;;;18.30;99.90;;;;;;5079386;28;20204;-47
2022/09/21 11:30:24;;;;;;;9.77;3.47;;;18.50;99.90;;;;;;5079628;28;20225;-47
2022/09/21 11:33:21;;;;;;;6.47;2.53;;;18.40;99.90;;;;;;5079363;28;20176;-46
2022/09/21 11:36:12;;;;;;;5.97;2.43;;;18.40;99.90;;;;;;5078930;28;20229;-47
2022/09/21 11:39:16;;;;;;;7.33;2.47;;;18.40;99.90;;;;;;5079251;28;20163;-46
2022/09/21 11:42:19;;;;;;;5.10;2.43;;;18.30;99.90;;;;;;5075669;28;20286;-47
2022/09/21 11:44:59;;;;;;;5.37;2.30;;;18.20;99.90;;;;;;5067148;28;20538;-47
2022/09/21 11:47:30;;;;;;;5.70;2.37;;;18.10;99.90;;;;;;5077971;28;20710;-48
2022/09/21 11:50:22;;;;;;;6.97;2.87;;;18.00;99.90;;;;;;5076816;28;20202;-47
2022/09/21 11:53:03;;;;;;;6.23;3.17;;;17.90;99.90;;;;;;5077310;28;20168;-47
2022/09/21 11:55:35;;;;;;;5.27;3.00;;;17.90;99.90;;;;;;5077041;28;20160;-47
2022/09/21 11:58:14;;;;;;;8.40;3.07;;;17.90;99.90;;;;;;5076915;28;20191;-48
2022/09/21 12:01:02;;;;;;;6.23;2.67;;;17.90;99.90;;;;;;5074884;28;20221;-48
2022/09/21 12:03:54;;;;;;;8.07;2.80;;;17.90;99.90;;;;;;5077410;28;20156;-47
2022/09/21 12:06:32;;;;;;;9.87;3.00;;;17.90;99.90;;;;;;5075365;28;20176;-46
2022/09/21 12:09:18;;;;;;;6.27;2.73;;;17.90;99.90;;;;;;5076584;28;20196;-46
2022/09/21 12:12:18;;;;;;;8.47;2.90;;;17.80;99.90;;;;;;5076353;28;20534;-45
2022/09/21 12:14:54;;;;;;;9.17;3.70;;;17.70;99.90;;;;;;5075998;28;20156;-46
2022/09/21 12:17:36;;;;;;;8.03;2.50;;;17.50;99.90;;;;;;5076808;28;20206;-47
2022/09/21 12:20:26;;;;;;;6.87;2.50;;;17.40;99.90;;;;;;5074235;28;20534;-41
2022/09/21 12:23:03;;;;;;;6.73;2.70;;;17.30;99.90;;;;;;5073715;28;20180;-43
2022/09/21 12:25:38;;;;;;;7.80;2.70;;;17.50;99.90;;;;;;5073636;28;20170;-43
2022/09/21 12:28:24;;;;;;;4.57;2.13;;;17.60;99.90;;;;;;5073589;28;20218;-39
2022/09/21 12:30:56;;;;;;;5.30;1.83;;;17.70;99.90;;;;;;5072406;28;20185;-42
2022/09/21 12:33:32;;;;;;;6.97;2.17;;;17.80;99.90;;;;;;5073668;28;20156;-43
2022/09/21 12:36:10;;;;;;;8.23;2.13;;;18.00;99.90;;;;;;5073641;28;20187;-42
2022/09/21 12:38:58;;;;;;;6.23;1.70;;;18.10;99.90;;;;;;5073859;28;20203;-42
2022/09/21 12:41:46;;;;;;;5.13;1.90;;;18.30;99.90;;;;;;5073744;28;20169;-42
2022/09/21 12:44:52;;;;;;;2.97;1.57;;;18.30;99.90;;;;;;5075750;28;20184;-47
2022/09/21 12:47:47;;;;;;;3.47;1.50;;;18.30;99.90;;;;;;5077327;28;20231;-46
2022/09/21 12:50:32;;;;;;;6.43;1.63;;;18.30;99.90;;;;;;5076345;28;20631;-46
2022/09/21 12:52:59;;;;;;;5.97;1.43;;;18.20;99.90;;;;;;5077757;28;20160;-46
2022/09/21 12:55:32;;;;;;;2.80;1.37;;;18.30;99.90;;;;;;5077669;28;20172;-48
2022/09/21 12:58:11;;;;;;;3.77;1.50;;;18.40;99.90;;;;;;5075126;28;20278;-44
2022/09/21 13:01:11;;;;;;;6.57;1.63;;;18.40;99.90;;;;;;5073540;28;20274;-45
2022/09/21 13:04:03;;;;;;;6.37;1.83;;;18.30;99.90;;;;;;5073623;28;20175;-44
2022/09/21 13:06:34;;;;;;;4.83;1.50;;;18.40;99.90;;;;;;5073209;28;20243;-45
2022/09/21 13:09:02;;;;;;;5.50;1.40;;;18.40;99.90;;;;;;5073257;28;20735;-46
2022/09/21 13:11:31;;;;;;;3.50;1.60;;;18.40;99.90;;;;;;5073727;28;20538;-46
2022/09/21 13:14:02;;;;;;;4.63;1.70;;;18.50;99.90;;;;;;5071821;28;20179;-44
2022/09/21 13:16:32;;;;;;;3.63;1.67;;;18.70;99.90;;;;;;5071764;28;20524;-45
2022/09/21 13:19:20;;;;;;;2.53;1.40;;;18.70;99.90;;;;;;5073416;28;20194;-46